Portada
METAR-TAF:

METAR-TAF

Aeropuertos :

Aeropuerto Internacional Hato

Curazao, Antillas Neerlandesas

latitud: 12-12N, longitud: 068-58W, altitud: 9 m

Observación

El informe se hizo hace 6 minutos, a las 13:30 UTC
Viento 16 kt del este-sureste con ráfagas de 27 kt
Temperatura 30°C
Humedad 62%
Presión 1014 hPa
Visibilidad 10 km o más

METAR: TNCC 231330Z AUTO 12016G27KT 9999 NSC 30/22 Q1014 NOSIG

Hora: 09:36 (13:36 UTC)

Pronóstico

El informe se hizo hace 4 horas y 36 minutos, a las 09:00 UTC
Pronóstico válido del 23 a las 12 UTC al 24 a las 12 UTC
Viento 16 kt del este
Visibilidad 10 km o más
Nubes dispersas a una altura de 2500 ft
Probabilidad 30% :
Temporalmente
del 23 a las 12 UTC al 23 a las 15 UTC
Viento 18 kt del este con ráfagas de 30 kt
Visibilidad: 8000 m
Cielo nuboso a una altura de 1500 ft
chaparrones de lluvia

TAF: TNCC 230900Z 2312/2412 10016KT 9999 SCT025 PROB30 TEMPO 2312/2315 09018G30KT 8000 SHRA BKN015

Observaciones y pronósticos meteorológicos de más de 4000 aeropuertos (mensajes METAR y TAF).

Los puntos amarillos y rojos representan las estaciones disponibles.

Ponga el ratón en el punto deseado para ver el nombre de la estación.

Haga clic para ver las observaciones y los pronósticos meteorológicos.

Para cambiar el mapa : haga clic en los botones verdes con una cruz de color negro para hacer un zoom, en el botón verde con un guión para alejar o en las flechas verdes para mapas adyacentes.


METAR-TAF: